sensor_id;sensor_type;location;lat;lon;timestamp;P1;durP1;ratioP1;P2;durP2;ratioP2
20318;SDS011;10317;47.254;11.314;2023-03-11T00:01:32;0.55;;;0.55;;
20318;SDS011;10317;47.254;11.314;2023-03-11T00:03:58;0.50;;;0.50;;
20318;SDS011;10317;47.254;11.314;2023-03-11T00:06:35;0.40;;;0.40;;
20318;SDS011;10317;47.254;11.314;2023-03-11T00:09:05;0.60;;;0.60;;
20318;SDS011;10317;47.254;11.314;2023-03-11T00:11:30;0.60;;;0.60;;
20318;SDS011;10317;47.254;11.314;2023-03-11T00:13:56;0.50;;;0.50;;
20318;SDS011;10317;47.254;11.314;2023-03-11T00:16:21;0.60;;;0.60;;
20318;SDS011;10317;47.254;11.314;2023-03-11T00:18:50;0.50;;;0.50;;
20318;SDS011;10317;47.254;11.314;2023-03-11T00:21:17;0.40;;;0.40;;
20318;SDS011;10317;47.254;11.314;2023-03-11T00:23:45;0.60;;;0.50;;
20318;SDS011;10317;47.254;11.314;2023-03-11T00:26:11;0.43;;;0.43;;
20318;SDS011;10317;47.254;11.314;2023-03-11T00:28:37;0.60;;;0.60;;
20318;SDS011;10317;47.254;11.314;2023-03-11T00:31:03;0.88;;;0.50;;
20318;SDS011;10317;47.254;11.314;2023-03-11T00:33:29;0.50;;;0.50;;
20318;SDS011;10317;47.254;11.314;2023-03-11T00:35:55;1.48;;;0.60;;
20318;SDS011;10317;47.254;11.314;2023-03-11T00:38:20;0.73;;;0.60;;
20318;SDS011;10317;47.254;11.314;2023-03-11T00:40:46;0.50;;;0.50;;
20318;SDS011;10317;47.254;11.314;2023-03-11T00:43:13;0.50;;;0.50;;
20318;SDS011;10317;47.254;11.314;2023-03-11T00:45:40;0.50;;;0.50;;
20318;SDS011;10317;47.254;11.314;2023-03-11T00:48:06;0.40;;;0.40;;
20318;SDS011;10317;47.254;11.314;2023-03-11T00:50:32;0.50;;;0.50;;
20318;SDS011;10317;47.254;11.314;2023-03-11T00:53:00;0.50;;;0.50;;
20318;SDS011;10317;47.254;11.314;2023-03-11T00:55:28;0.50;;;0.50;;
20318;SDS011;10317;47.254;11.314;2023-03-11T00:57:56;0.60;;;0.60;;
20318;SDS011;10317;47.254;11.314;2023-03-11T01:00:24;0.60;;;0.60;;
20318;SDS011;10317;47.254;11.314;2023-03-11T01:02:50;0.40;;;0.40;;
20318;SDS011;10317;47.254;11.314;2023-03-11T01:05:18;0.52;;;0.52;;
20318;SDS011;10317;47.254;11.314;2023-03-11T01:07:46;0.45;;;0.45;;
20318;SDS011;10317;47.254;11.314;2023-03-11T01:10:12;0.60;;;0.60;;
20318;SDS011;10317;47.254;11.314;2023-03-11T01:12:38;0.40;;;0.40;;
20318;SDS011;10317;47.254;11.314;2023-03-11T01:15:04;0.52;;;0.50;;
20318;SDS011;10317;47.254;11.314;2023-03-11T01:17:31;0.50;;;0.50;;
20318;SDS011;10317;47.254;11.314;2023-03-11T01:19:58;0.50;;;0.50;;
20318;SDS011;10317;47.254;11.314;2023-03-11T01:22:23;0.50;;;0.50;;
20318;SDS011;10317;47.254;11.314;2023-03-11T01:24:49;0.43;;;0.43;;
20318;SDS011;10317;47.254;11.314;2023-03-11T01:27:15;0.50;;;0.50;;
20318;SDS011;10317;47.254;11.314;2023-03-11T01:29:40;0.50;;;0.50;;
20318;SDS011;10317;47.254;11.314;2023-03-11T01:32:06;0.57;;;0.57;;
20318;SDS011;10317;47.254;11.314;2023-03-11T01:34:32;0.50;;;0.50;;
20318;SDS011;10317;47.254;11.314;2023-03-11T01:37:00;0.50;;;0.50;;
20318;SDS011;10317;47.254;11.314;2023-03-11T01:39:27;0.90;;;0.55;;
20318;SDS011;10317;47.254;11.314;2023-03-11T01:41:52;0.50;;;0.50;;
20318;SDS011;10317;47.254;11.314;2023-03-11T01:44:20;0.52;;;0.50;;
20318;SDS011;10317;47.254;11.314;2023-03-11T01:49:17;0.50;;;0.50;;
20318;SDS011;10317;47.254;11.314;2023-03-11T01:51:47;0.70;;;0.50;;
20318;SDS011;10317;47.254;11.314;2023-03-11T01:54:23;0.50;;;0.50;;
20318;SDS011;10317;47.254;11.314;2023-03-11T01:56:52;0.57;;;0.57;;
20318;SDS011;10317;47.254;11.314;2023-03-11T01:59:23;0.50;;;0.50;;
20318;SDS011;10317;47.254;11.314;2023-03-11T02:04:34;0.40;;;0.40;;
20318;SDS011;10317;47.254;11.314;2023-03-11T02:07:01;0.50;;;0.50;;
20318;SDS011;10317;47.254;11.314;2023-03-11T02:09:28;0.50;;;0.50;;
20318;SDS011;10317;47.254;11.314;2023-03-11T02:11:54;0.50;;;0.50;;
20318;SDS011;10317;47.254;11.314;2023-03-11T02:14:21;0.50;;;0.50;;
20318;SDS011;10317;47.254;11.314;2023-03-11T02:16:48;0.50;;;0.50;;
20318;SDS011;10317;47.254;11.314;2023-03-11T02:19:26;0.50;;;0.50;;
20318;SDS011;10317;47.254;11.314;2023-03-11T02:22:14;0.50;;;0.50;;
20318;SDS011;10317;47.254;11.314;2023-03-11T02:27:13;0.50;;;0.50;;
20318;SDS011;10317;47.254;11.314;2023-03-11T02:29:42;0.50;;;0.50;;
20318;SDS011;10317;47.254;11.314;2023-03-11T02:32:10;0.50;;;0.50;;
20318;SDS011;10317;47.254;11.314;2023-03-11T02:34:37;0.50;;;0.50;;
20318;SDS011;10317;47.254;11.314;2023-03-11T02:37:08;0.50;;;0.50;;
20318;SDS011;10317;47.254;11.314;2023-03-11T02:39:36;0.40;;;0.40;;
20318;SDS011;10317;47.254;11.314;2023-03-11T02:42:14;0.47;;;0.47;;
20318;SDS011;10317;47.254;11.314;2023-03-11T02:44:43;0.40;;;0.40;;
20318;SDS011;10317;47.254;11.314;2023-03-11T02:47:12;0.60;;;0.50;;
20318;SDS011;10317;47.254;11.314;2023-03-11T02:49:38;0.50;;;0.50;;
20318;SDS011;10317;47.254;11.314;2023-03-11T02:52:04;0.50;;;0.50;;
20318;SDS011;10317;47.254;11.314;2023-03-11T02:54:30;0.52;;;0.52;;
20318;SDS011;10317;47.254;11.314;2023-03-11T02:56:56;0.50;;;0.50;;
20318;SDS011;10317;47.254;11.314;2023-03-11T02:59:21;0.85;;;0.50;;
20318;SDS011;10317;47.254;11.314;2023-03-11T03:01:47;0.50;;;0.50;;
20318;SDS011;10317;47.254;11.314;2023-03-11T03:04:13;0.50;;;0.50;;
20318;SDS011;10317;47.254;11.314;2023-03-11T03:06:38;0.50;;;0.50;;
20318;SDS011;10317;47.254;11.314;2023-03-11T03:09:04;0.50;;;0.50;;
20318;SDS011;10317;47.254;11.314;2023-03-11T03:11:30;0.50;;;0.50;;
20318;SDS011;10317;47.254;11.314;2023-03-11T03:13:55;0.60;;;0.60;;
20318;SDS011;10317;47.254;11.314;2023-03-11T03:16:21;0.70;;;0.70;;
20318;SDS011;10317;47.254;11.314;2023-03-11T03:18:47;0.65;;;0.65;;
20318;SDS011;10317;47.254;11.314;2023-03-11T03:21:12;0.60;;;0.60;;
20318;SDS011;10317;47.254;11.314;2023-03-11T03:23:38;0.60;;;0.60;;
20318;SDS011;10317;47.254;11.314;2023-03-11T03:26:04;0.90;;;0.90;;
20318;SDS011;10317;47.254;11.314;2023-03-11T03:28:30;0.70;;;0.70;;
20318;SDS011;10317;47.254;11.314;2023-03-11T03:31:02;0.70;;;0.70;;
20318;SDS011;10317;47.254;11.314;2023-03-11T03:33:29;0.82;;;0.80;;
20318;SDS011;10317;47.254;11.314;2023-03-11T03:35:55;1.30;;;1.23;;
20318;SDS011;10317;47.254;11.314;2023-03-11T03:38:21;0.70;;;0.70;;
20318;SDS011;10317;47.254;11.314;2023-03-11T03:40:47;0.73;;;0.73;;
20318;SDS011;10317;47.254;11.314;2023-03-11T03:43:12;0.68;;;0.68;;
20318;SDS011;10317;47.254;11.314;2023-03-11T03:45:38;0.70;;;0.70;;
20318;SDS011;10317;47.254;11.314;2023-03-11T03:48:04;0.80;;;0.80;;
20318;SDS011;10317;47.254;11.314;2023-03-11T03:50:31;2.10;;;0.80;;
20318;SDS011;10317;47.254;11.314;2023-03-11T03:52:56;0.80;;;0.80;;
20318;SDS011;10317;47.254;11.314;2023-03-11T03:55:22;0.60;;;0.60;;
20318;SDS011;10317;47.254;11.314;2023-03-11T03:57:48;0.80;;;0.80;;
20318;SDS011;10317;47.254;11.314;2023-03-11T04:00:13;0.80;;;0.80;;
20318;SDS011;10317;47.254;11.314;2023-03-11T04:02:40;1.00;;;1.00;;
20318;SDS011;10317;47.254;11.314;2023-03-11T04:05:06;0.90;;;0.90;;
20318;SDS011;10317;47.254;11.314;2023-03-11T04:07:33;0.80;;;0.80;;
20318;SDS011;10317;47.254;11.314;2023-03-11T04:09:59;0.90;;;0.90;;
20318;SDS011;10317;47.254;11.314;2023-03-11T04:12:25;1.10;;;1.10;;
20318;SDS011;10317;47.254;11.314;2023-03-11T04:14:51;0.93;;;0.90;;
20318;SDS011;10317;47.254;11.314;2023-03-11T04:17:17;0.82;;;0.82;;
20318;SDS011;10317;47.254;11.314;2023-03-11T04:19:43;1.08;;;0.90;;
20318;SDS011;10317;47.254;11.314;2023-03-11T04:22:09;0.90;;;0.90;;
20318;SDS011;10317;47.254;11.314;2023-03-11T04:24:35;1.02;;;0.90;;
20318;SDS011;10317;47.254;11.314;2023-03-11T04:27:01;0.80;;;0.80;;
20318;SDS011;10317;47.254;11.314;2023-03-11T04:29:26;1.00;;;1.00;;
20318;SDS011;10317;47.254;11.314;2023-03-11T04:31:52;0.90;;;0.90;;
20318;SDS011;10317;47.254;11.314;2023-03-11T04:34:18;0.80;;;0.80;;
20318;SDS011;10317;47.254;11.314;2023-03-11T04:36:44;0.90;;;0.90;;
20318;SDS011;10317;47.254;11.314;2023-03-11T04:39:10;0.90;;;0.90;;
20318;SDS011;10317;47.254;11.314;2023-03-11T04:41:36;0.85;;;0.85;;
20318;SDS011;10317;47.254;11.314;2023-03-11T04:44:01;1.00;;;1.00;;
20318;SDS011;10317;47.254;11.314;2023-03-11T04:46:27;0.90;;;0.90;;
20318;SDS011;10317;47.254;11.314;2023-03-11T04:48:52;1.00;;;1.00;;
20318;SDS011;10317;47.254;11.314;2023-03-11T04:51:18;1.10;;;1.10;;
20318;SDS011;10317;47.254;11.314;2023-03-11T04:53:44;0.90;;;0.90;;
20318;SDS011;10317;47.254;11.314;2023-03-11T04:56:10;0.98;;;0.98;;
20318;SDS011;10317;47.254;11.314;2023-03-11T04:58:35;1.73;;;1.10;;
20318;SDS011;10317;47.254;11.314;2023-03-11T05:01:01;1.08;;;1.08;;
20318;SDS011;10317;47.254;11.314;2023-03-11T05:03:27;0.90;;;0.90;;
20318;SDS011;10317;47.254;11.314;2023-03-11T05:05:52;1.17;;;1.08;;
20318;SDS011;10317;47.254;11.314;2023-03-11T05:08:21;0.82;;;0.82;;
20318;SDS011;10317;47.254;11.314;2023-03-11T05:10:48;1.00;;;1.00;;
20318;SDS011;10317;47.254;11.314;2023-03-11T05:13:16;0.90;;;0.90;;
20318;SDS011;10317;47.254;11.314;2023-03-11T05:15:44;0.90;;;0.90;;
20318;SDS011;10317;47.254;11.314;2023-03-11T05:18:10;0.90;;;0.90;;
20318;SDS011;10317;47.254;11.314;2023-03-11T05:20:36;1.17;;;0.93;;
20318;SDS011;10317;47.254;11.314;2023-03-11T05:23:02;0.90;;;0.90;;
20318;SDS011;10317;47.254;11.314;2023-03-11T05:25:28;0.80;;;0.80;;
20318;SDS011;10317;47.254;11.314;2023-03-11T05:27:54;0.90;;;0.90;;
20318;SDS011;10317;47.254;11.314;2023-03-11T05:30:20;0.85;;;0.85;;
20318;SDS011;10317;47.254;11.314;2023-03-11T05:32:46;0.90;;;0.90;;
20318;SDS011;10317;47.254;11.314;2023-03-11T05:35:12;0.82;;;0.82;;
20318;SDS011;10317;47.254;11.314;2023-03-11T05:37:39;0.90;;;0.90;;
20318;SDS011;10317;47.254;11.314;2023-03-11T05:40:05;1.20;;;1.00;;
20318;SDS011;10317;47.254;11.314;2023-03-11T05:42:32;1.20;;;1.20;;
20318;SDS011;10317;47.254;11.314;2023-03-11T05:44:58;1.88;;;1.10;;
20318;SDS011;10317;47.254;11.314;2023-03-11T05:47:24;1.10;;;1.10;;
20318;SDS011;10317;47.254;11.314;2023-03-11T05:49:50;1.00;;;1.00;;
20318;SDS011;10317;47.254;11.314;2023-03-11T05:52:15;1.02;;;1.02;;
20318;SDS011;10317;47.254;11.314;2023-03-11T05:54:41;1.52;;;1.10;;
20318;SDS011;10317;47.254;11.314;2023-03-11T05:57:07;1.08;;;1.08;;
20318;SDS011;10317;47.254;11.314;2023-03-11T05:59:33;2.72;;;2.00;;
20318;SDS011;10317;47.254;11.314;2023-03-11T06:01:59;1.50;;;1.40;;
20318;SDS011;10317;47.254;11.314;2023-03-11T06:04:26;1.30;;;1.30;;
20318;SDS011;10317;47.254;11.314;2023-03-11T06:06:52;1.42;;;1.42;;
20318;SDS011;10317;47.254;11.314;2023-03-11T06:09:18;1.73;;;1.27;;
20318;SDS011;10317;47.254;11.314;2023-03-11T06:11:43;1.20;;;1.20;;
20318;SDS011;10317;47.254;11.314;2023-03-11T06:14:10;1.83;;;1.10;;
20318;SDS011;10317;47.254;11.314;2023-03-11T06:16:37;1.30;;;1.30;;
20318;SDS011;10317;47.254;11.314;2023-03-11T06:19:03;1.25;;;1.15;;
20318;SDS011;10317;47.254;11.314;2023-03-11T06:21:29;1.02;;;1.02;;
20318;SDS011;10317;47.254;11.314;2023-03-11T06:23:55;1.10;;;1.10;;
20318;SDS011;10317;47.254;11.314;2023-03-11T06:26:21;1.20;;;1.15;;
20318;SDS011;10317;47.254;11.314;2023-03-11T06:28:48;1.20;;;1.20;;
20318;SDS011;10317;47.254;11.314;2023-03-11T06:31:19;1.20;;;1.20;;
20318;SDS011;10317;47.254;11.314;2023-03-11T06:33:48;1.65;;;1.10;;
20318;SDS011;10317;47.254;11.314;2023-03-11T06:36:15;1.10;;;1.10;;
20318;SDS011;10317;47.254;11.314;2023-03-11T06:38:42;1.05;;;1.05;;
20318;SDS011;10317;47.254;11.314;2023-03-11T06:41:10;1.00;;;1.00;;
20318;SDS011;10317;47.254;11.314;2023-03-11T06:43:36;1.20;;;1.10;;
20318;SDS011;10317;47.254;11.314;2023-03-11T06:46:09;1.25;;;1.25;;
20318;SDS011;10317;47.254;11.314;2023-03-11T06:48:36;0.90;;;0.90;;
20318;SDS011;10317;47.254;11.314;2023-03-11T06:51:02;1.20;;;1.20;;
20318;SDS011;10317;47.254;11.314;2023-03-11T06:53:28;1.02;;;1.02;;
20318;SDS011;10317;47.254;11.314;2023-03-11T06:56:04;1.00;;;1.00;;
20318;SDS011;10317;47.254;11.314;2023-03-11T06:58:35;1.85;;;1.02;;
20318;SDS011;10317;47.254;11.314;2023-03-11T07:03:29;1.25;;;1.23;;
20318;SDS011;10317;47.254;11.314;2023-03-11T07:05:55;1.48;;;1.38;;
20318;SDS011;10317;47.254;11.314;2023-03-11T07:08:22;1.30;;;1.30;;
20318;SDS011;10317;47.254;11.314;2023-03-11T07:11:08;1.20;;;1.20;;
20318;SDS011;10317;47.254;11.314;2023-03-11T07:13:37;4.15;;;1.23;;
20318;SDS011;10317;47.254;11.314;2023-03-11T07:16:03;1.30;;;1.30;;
20318;SDS011;10317;47.254;11.314;2023-03-11T07:18:29;1.40;;;1.40;;
20318;SDS011;10317;47.254;11.314;2023-03-11T07:20:56;1.50;;;1.50;;
20318;SDS011;10317;47.254;11.314;2023-03-11T07:23:21;1.15;;;1.15;;
20318;SDS011;10317;47.254;11.314;2023-03-11T07:25:47;1.65;;;1.55;;
20318;SDS011;10317;47.254;11.314;2023-03-11T07:28:13;2.20;;;1.52;;
20318;SDS011;10317;47.254;11.314;2023-03-11T07:30:39;1.60;;;1.50;;
20318;SDS011;10317;47.254;11.314;2023-03-11T07:33:05;2.15;;;1.48;;
20318;SDS011;10317;47.254;11.314;2023-03-11T07:35:31;1.30;;;1.30;;
20318;SDS011;10317;47.254;11.314;2023-03-11T07:37:59;1.20;;;1.20;;
20318;SDS011;10317;47.254;11.314;2023-03-11T07:40:24;1.80;;;1.70;;
20318;SDS011;10317;47.254;11.314;2023-03-11T07:42:50;1.48;;;1.05;;
20318;SDS011;10317;47.254;11.314;2023-03-11T07:45:16;1.95;;;1.25;;
20318;SDS011;10317;47.254;11.314;2023-03-11T07:47:41;1.63;;;1.52;;
20318;SDS011;10317;47.254;11.314;2023-03-11T07:50:07;1.45;;;1.40;;
20318;SDS011;10317;47.254;11.314;2023-03-11T07:52:34;2.22;;;1.52;;
20318;SDS011;10317;47.254;11.314;2023-03-11T07:54:59;1.20;;;1.10;;
20318;SDS011;10317;47.254;11.314;2023-03-11T07:57:25;1.30;;;1.20;;
20318;SDS011;10317;47.254;11.314;2023-03-11T07:59:51;1.30;;;1.25;;
20318;SDS011;10317;47.254;11.314;2023-03-11T08:02:16;1.23;;;1.23;;
20318;SDS011;10317;47.254;11.314;2023-03-11T08:04:42;1.30;;;1.30;;
20318;SDS011;10317;47.254;11.314;2023-03-11T08:07:08;1.80;;;1.70;;
20318;SDS011;10317;47.254;11.314;2023-03-11T08:09:33;1.42;;;1.42;;
20318;SDS011;10317;47.254;11.314;2023-03-11T08:11:59;1.27;;;1.17;;
20318;SDS011;10317;47.254;11.314;2023-03-11T08:14:25;1.10;;;1.10;;
20318;SDS011;10317;47.254;11.314;2023-03-11T08:16:51;1.27;;;1.27;;
20318;SDS011;10317;47.254;11.314;2023-03-11T08:19:18;1.45;;;1.45;;
20318;SDS011;10317;47.254;11.314;2023-03-11T08:21:43;1.60;;;1.60;;
20318;SDS011;10317;47.254;11.314;2023-03-11T08:24:10;1.55;;;1.55;;
20318;SDS011;10317;47.254;11.314;2023-03-11T08:26:37;1.85;;;1.75;;
20318;SDS011;10317;47.254;11.314;2023-03-11T08:29:04;1.90;;;1.90;;
20318;SDS011;10317;47.254;11.314;2023-03-11T08:31:30;1.77;;;1.67;;
20318;SDS011;10317;47.254;11.314;2023-03-11T08:34:04;1.70;;;1.60;;
20318;SDS011;10317;47.254;11.314;2023-03-11T08:36:33;1.67;;;1.58;;
20318;SDS011;10317;47.254;11.314;2023-03-11T08:38:58;1.80;;;1.80;;
20318;SDS011;10317;47.254;11.314;2023-03-11T08:41:24;1.90;;;1.80;;
20318;SDS011;10317;47.254;11.314;2023-03-11T08:43:51;1.90;;;1.80;;
20318;SDS011;10317;47.254;11.314;2023-03-11T08:46:25;1.83;;;1.73;;
20318;SDS011;10317;47.254;11.314;2023-03-11T08:48:52;2.67;;;1.60;;
20318;SDS011;10317;47.254;11.314;2023-03-11T08:51:19;1.52;;;1.42;;
20318;SDS011;10317;47.254;11.314;2023-03-11T08:53:45;1.80;;;1.70;;
20318;SDS011;10317;47.254;11.314;2023-03-11T08:56:11;1.77;;;1.70;;
20318;SDS011;10317;47.254;11.314;2023-03-11T08:58:37;1.65;;;1.65;;
20318;SDS011;10317;47.254;11.314;2023-03-11T09:01:04;1.70;;;1.70;;
20318;SDS011;10317;47.254;11.314;2023-03-11T09:03:33;1.60;;;1.60;;
20318;SDS011;10317;47.254;11.314;2023-03-11T09:06:01;1.55;;;1.55;;
20318;SDS011;10317;47.254;11.314;2023-03-11T09:08:28;2.00;;;1.90;;
20318;SDS011;10317;47.254;11.314;2023-03-11T09:10:54;2.00;;;1.88;;
20318;SDS011;10317;47.254;11.314;2023-03-11T09:13:20;2.40;;;1.75;;
20318;SDS011;10317;47.254;11.314;2023-03-11T09:15:49;2.28;;;2.08;;
20318;SDS011;10317;47.254;11.314;2023-03-11T09:18:16;1.80;;;1.67;;
20318;SDS011;10317;47.254;11.314;2023-03-11T09:20:43;2.00;;;1.90;;
20318;SDS011;10317;47.254;11.314;2023-03-11T09:23:10;1.30;;;1.30;;
20318;SDS011;10317;47.254;11.314;2023-03-11T09:25:37;1.75;;;1.65;;
20318;SDS011;10317;47.254;11.314;2023-03-11T09:28:03;1.65;;;1.65;;
20318;SDS011;10317;47.254;11.314;2023-03-11T09:30:29;1.88;;;1.77;;
20318;SDS011;10317;47.254;11.314;2023-03-11T09:32:54;1.55;;;1.50;;
20318;SDS011;10317;47.254;11.314;2023-03-11T09:35:20;2.17;;;2.00;;
20318;SDS011;10317;47.254;11.314;2023-03-11T09:37:46;6.63;;;4.63;;
20318;SDS011;10317;47.254;11.314;2023-03-11T09:40:15;2.20;;;2.10;;
20318;SDS011;10317;47.254;11.314;2023-03-11T09:45:25;1.92;;;1.83;;
20318;SDS011;10317;47.254;11.314;2023-03-11T09:50:37;2.03;;;1.92;;
20318;SDS011;10317;47.254;11.314;2023-03-11T09:55:58;1.70;;;1.67;;
20318;SDS011;10317;47.254;11.314;2023-03-11T10:01:16;1.90;;;1.80;;
20318;SDS011;10317;47.254;11.314;2023-03-11T10:03:56;2.08;;;1.98;;
20318;SDS011;10317;47.254;11.314;2023-03-11T10:06:32;1.50;;;1.50;;
20318;SDS011;10317;47.254;11.314;2023-03-11T10:11:41;1.67;;;1.58;;
20318;SDS011;10317;47.254;11.314;2023-03-11T10:25:48;2.17;;;2.00;;
20318;SDS011;10317;47.254;11.314;2023-03-11T10:28:36;1.67;;;1.67;;
20318;SDS011;10317;47.254;11.314;2023-03-11T10:31:39;1.65;;;1.65;;
20318;SDS011;10317;47.254;11.314;2023-03-11T10:34:16;1.90;;;1.80;;
20318;SDS011;10317;47.254;11.314;2023-03-11T10:39:38;1.30;;;1.30;;
20318;SDS011;10317;47.254;11.314;2023-03-11T10:42:05;2.35;;;1.60;;
20318;SDS011;10317;47.254;11.314;2023-03-11T10:44:38;2.70;;;1.48;;
20318;SDS011;10317;47.254;11.314;2023-03-11T10:47:06;1.73;;;1.63;;
20318;SDS011;10317;47.254;11.314;2023-03-11T10:49:47;1.75;;;1.65;;
20318;SDS011;10317;47.254;11.314;2023-03-11T10:52:13;3.25;;;1.40;;
20318;SDS011;10317;47.254;11.314;2023-03-11T10:54:41;1.40;;;1.40;;
20318;SDS011;10317;47.254;11.314;2023-03-11T11:05:02;3.13;;;1.70;;
20318;SDS011;10317;47.254;11.314;2023-03-11T11:07:53;1.73;;;1.73;;
20318;SDS011;10317;47.254;11.314;2023-03-11T11:10:30;1.40;;;1.40;;
20318;SDS011;10317;47.254;11.314;2023-03-11T11:15:41;1.60;;;1.50;;
20318;SDS011;10317;47.254;11.314;2023-03-11T11:27:05;1.88;;;1.30;;
20318;SDS011;10317;47.254;11.314;2023-03-11T11:30:01;1.25;;;1.25;;
20318;SDS011;10317;47.254;11.314;2023-03-11T11:32:37;1.40;;;1.40;;
20318;SDS011;10317;47.254;11.314;2023-03-11T11:35:16;1.40;;;1.40;;
20318;SDS011;10317;47.254;11.314;2023-03-11T11:37:47;1.30;;;1.30;;
20318;SDS011;10317;47.254;11.314;2023-03-11T11:40:23;1.60;;;1.60;;
20318;SDS011;10317;47.254;11.314;2023-03-11T11:42:55;1.42;;;1.42;;
20318;SDS011;10317;47.254;11.314;2023-03-11T11:45:25;1.30;;;1.30;;
20318;SDS011;10317;47.254;11.314;2023-03-11T11:47:57;1.20;;;1.20;;
20318;SDS011;10317;47.254;11.314;2023-03-11T11:50:40;1.27;;;1.27;;
20318;SDS011;10317;47.254;11.314;2023-03-11T11:55:49;1.27;;;1.27;;
20318;SDS011;10317;47.254;11.314;2023-03-11T11:58:18;1.50;;;1.30;;
20318;SDS011;10317;47.254;11.314;2023-03-11T12:00:49;1.52;;;1.50;;
20318;SDS011;10317;47.254;11.314;2023-03-11T12:12:15;2.55;;;1.40;;
20318;SDS011;10317;47.254;11.314;2023-03-11T12:14:54;1.30;;;1.30;;
20318;SDS011;10317;47.254;11.314;2023-03-11T12:17:43;3.60;;;1.60;;
20318;SDS011;10317;47.254;11.314;2023-03-11T12:31:34;1.52;;;1.52;;
20318;SDS011;10317;47.254;11.314;2023-03-11T12:34:08;2.00;;;1.90;;
20318;SDS011;10317;47.254;11.314;2023-03-11T12:36:40;1.52;;;1.52;;
20318;SDS011;10317;47.254;11.314;2023-03-11T12:39:21;1.55;;;1.45;;
20318;SDS011;10317;47.254;11.314;2023-03-11T12:44:36;1.67;;;1.58;;
20318;SDS011;10317;47.254;11.314;2023-03-11T12:49:32;1.65;;;1.55;;
20318;SDS011;10317;47.254;11.314;2023-03-11T12:54:42;1.52;;;1.52;;
20318;SDS011;10317;47.254;11.314;2023-03-11T13:08:56;1.40;;;1.30;;
20318;SDS011;10317;47.254;11.314;2023-03-11T13:16:55;1.52;;;1.52;;
20318;SDS011;10317;47.254;11.314;2023-03-11T13:21:51;1.80;;;1.70;;
20318;SDS011;10317;47.254;11.314;2023-03-11T13:37:25;1.30;;;1.30;;
20318;SDS011;10317;47.254;11.314;2023-03-11T13:43:24;1.63;;;1.60;;
20318;SDS011;10317;47.254;11.314;2023-03-11T13:45:58;1.20;;;1.20;;
20318;SDS011;10317;47.254;11.314;2023-03-11T13:48:41;1.88;;;1.77;;
20318;SDS011;10317;47.254;11.314;2023-03-11T13:51:15;1.58;;;1.58;;
20318;SDS011;10317;47.254;11.314;2023-03-11T13:54:07;1.50;;;1.50;;
20318;SDS011;10317;47.254;11.314;2023-03-11T13:56:47;1.60;;;1.50;;
20318;SDS011;10317;47.254;11.314;2023-03-11T14:02:03;1.20;;;1.20;;
20318;SDS011;10317;47.254;11.314;2023-03-11T14:04:50;1.60;;;1.50;;
20318;SDS011;10317;47.254;11.314;2023-03-11T14:12:43;1.42;;;1.42;;
20318;SDS011;10317;47.254;11.314;2023-03-11T14:15:20;1.30;;;1.20;;
20318;SDS011;10317;47.254;11.314;2023-03-11T14:17:49;1.30;;;1.30;;
20318;SDS011;10317;47.254;11.314;2023-03-11T14:20:16;1.80;;;1.30;;
20318;SDS011;10317;47.254;11.314;2023-03-11T14:22:47;1.30;;;1.30;;
20318;SDS011;10317;47.254;11.314;2023-03-11T14:25:18;2.08;;;1.40;;
20318;SDS011;10317;47.254;11.314;2023-03-11T14:30:25;1.10;;;1.10;;
20318;SDS011;10317;47.254;11.314;2023-03-11T14:32:59;1.73;;;1.30;;
20318;SDS011;10317;47.254;11.314;2023-03-11T14:35:32;1.20;;;1.20;;
20318;SDS011;10317;47.254;11.314;2023-03-11T14:37:58;1.35;;;1.35;;
20318;SDS011;10317;47.254;11.314;2023-03-11T14:40:26;1.50;;;1.23;;
20318;SDS011;10317;47.254;11.314;2023-03-11T14:42:59;1.20;;;1.20;;
20318;SDS011;10317;47.254;11.314;2023-03-11T14:45:28;1.50;;;1.50;;
20318;SDS011;10317;47.254;11.314;2023-03-11T14:48:11;1.27;;;1.25;;
20318;SDS011;10317;47.254;11.314;2023-03-11T14:50:38;1.58;;;1.30;;
20318;SDS011;10317;47.254;11.314;2023-03-11T14:55:37;2.25;;;1.40;;
20318;SDS011;10317;47.254;11.314;2023-03-11T15:00:58;1.40;;;1.40;;
20318;SDS011;10317;47.254;11.314;2023-03-11T15:03:29;1.50;;;1.50;;
20318;SDS011;10317;47.254;11.314;2023-03-11T15:08:47;1.48;;;1.40;;
20318;SDS011;10317;47.254;11.314;2023-03-11T15:11:17;1.70;;;1.70;;
20318;SDS011;10317;47.254;11.314;2023-03-11T15:13:46;1.15;;;1.13;;
20318;SDS011;10317;47.254;11.314;2023-03-11T15:16:22;1.92;;;1.27;;
20318;SDS011;10317;47.254;11.314;2023-03-11T15:18:48;1.95;;;1.85;;
20318;SDS011;10317;47.254;11.314;2023-03-11T15:21:15;1.27;;;1.27;;
20318;SDS011;10317;47.254;11.314;2023-03-11T15:23:44;1.50;;;1.40;;
20318;SDS011;10317;47.254;11.314;2023-03-11T15:26:19;1.20;;;1.20;;
20318;SDS011;10317;47.254;11.314;2023-03-11T15:28:56;1.25;;;1.25;;
20318;SDS011;10317;47.254;11.314;2023-03-11T15:33:55;1.27;;;1.27;;
20318;SDS011;10317;47.254;11.314;2023-03-11T15:36:53;1.30;;;1.30;;
20318;SDS011;10317;47.254;11.314;2023-03-11T15:44:37;1.48;;;1.48;;
20318;SDS011;10317;47.254;11.314;2023-03-11T15:47:15;1.58;;;1.50;;
20318;SDS011;10317;47.254;11.314;2023-03-11T15:49:43;1.77;;;1.67;;
20318;SDS011;10317;47.254;11.314;2023-03-11T15:52:09;1.95;;;1.85;;
20318;SDS011;10317;47.254;11.314;2023-03-11T15:54:35;1.40;;;1.40;;
20318;SDS011;10317;47.254;11.314;2023-03-11T15:57:03;1.50;;;1.50;;
20318;SDS011;10317;47.254;11.314;2023-03-11T15:59:32;1.35;;;1.25;;
20318;SDS011;10317;47.254;11.314;2023-03-11T16:01:59;1.70;;;1.60;;
20318;SDS011;10317;47.254;11.314;2023-03-11T16:04:25;2.10;;;2.00;;
20318;SDS011;10317;47.254;11.314;2023-03-11T16:06:50;2.97;;;2.05;;
20318;SDS011;10317;47.254;11.314;2023-03-11T16:09:18;2.88;;;2.67;;
20318;SDS011;10317;47.254;11.314;2023-03-11T16:11:44;4.25;;;2.10;;
20318;SDS011;10317;47.254;11.314;2023-03-11T16:14:14;1.80;;;1.70;;
20318;SDS011;10317;47.254;11.314;2023-03-11T16:16:42;2.00;;;1.90;;
20318;SDS011;10317;47.254;11.314;2023-03-11T16:19:08;4.68;;;1.58;;
20318;SDS011;10317;47.254;11.314;2023-03-11T16:21:35;1.60;;;1.50;;
20318;SDS011;10317;47.254;11.314;2023-03-11T16:24:05;2.58;;;1.75;;
20318;SDS011;10317;47.254;11.314;2023-03-11T16:26:31;1.67;;;1.67;;
20318;SDS011;10317;47.254;11.314;2023-03-11T16:28:58;1.90;;;1.80;;
20318;SDS011;10317;47.254;11.314;2023-03-11T16:31:24;2.13;;;1.92;;
20318;SDS011;10317;47.254;11.314;2023-03-11T16:33:50;2.28;;;2.17;;
20318;SDS011;10317;47.254;11.314;2023-03-11T16:36:15;2.00;;;1.90;;
20318;SDS011;10317;47.254;11.314;2023-03-11T16:38:42;2.00;;;1.90;;
20318;SDS011;10317;47.254;11.314;2023-03-11T16:41:13;1.67;;;1.67;;
20318;SDS011;10317;47.254;11.314;2023-03-11T16:43:40;3.28;;;2.33;;
20318;SDS011;10317;47.254;11.314;2023-03-11T16:46:06;2.25;;;2.15;;
20318;SDS011;10317;47.254;11.314;2023-03-11T16:48:32;3.78;;;2.15;;
20318;SDS011;10317;47.254;11.314;2023-03-11T16:50:58;2.17;;;2.08;;
20318;SDS011;10317;47.254;11.314;2023-03-11T16:53:24;2.40;;;2.30;;
20318;SDS011;10317;47.254;11.314;2023-03-11T16:55:51;2.45;;;2.30;;
20318;SDS011;10317;47.254;11.314;2023-03-11T16:58:17;2.13;;;2.03;;
20318;SDS011;10317;47.254;11.314;2023-03-11T17:00:44;2.22;;;2.13;;
20318;SDS011;10317;47.254;11.314;2023-03-11T17:03:12;2.58;;;2.38;;
20318;SDS011;10317;47.254;11.314;2023-03-11T17:05:43;2.35;;;2.20;;
20318;SDS011;10317;47.254;11.314;2023-03-11T17:08:09;2.25;;;2.15;;
20318;SDS011;10317;47.254;11.314;2023-03-11T17:10:36;2.42;;;1.92;;
20318;SDS011;10317;47.254;11.314;2023-03-11T17:13:06;2.13;;;1.98;;